RJBB Airport Information

Runway Information
Runway 06L Length 13123 ft width 196 ft
Elevation 24 ft Threshold 0 ft Heading 51
Runway 24R Length 13123 ft Width 196 ft
Elevation 32 ft Threshold 0 ft Heading 231
Runway 06R Length 11483 ft width 196 ft
Elevation 6 ft Threshold 0 ft Heading 51
Runway 24L Length 11483 ft Width 196 ft
Elevation 15 ft Threshold 0 ft Heading 231
Airport Frequencies
Type APP Name APP Frequency 120.25 MHZ
Type ATIS Name ATIS Frequency 127.85 MHZ
Type CLD Name CLNC DEL Frequency 121.9 MHZ
Type DEP Name DEP Frequency 119.2 MHZ
Type GND Name GND Frequency 121.6 MHZ
Type TCA Name TCA Frequency 121.1 MHZ
Type TWR Name TWR Frequency 118.2 MHZ
Airport Navaids
Type NDB Name Kansai Frequency 346 KHZ
Type VOR-DME Name Kansai Frequency 111800 KHZ
Type VOR-DME Name Shigi Frequency 111600 KHZ
Type VOR-DME Name Shinoda Frequency 112300 KHZ
Type VOR-DME Name Tomo Frequency 116400 KHZ
Airport Weather Information & NOTAM

Deprecated: The each() function is deprecated. This message will be suppressed on further calls in /home/jyhjkdzw/public_html/lib/functions.php on line 130
ADDS - METARS form results

(1620 UTC 17 May 2021)
Data provider http://aviationweather.gov/metar/data/
 
METAR text: RJBB 171600Z AUTO 23007KT 9999 FEW048 BKN050 OVC070 19/18 Q1008 NOSIG
Conditions at: RJBB (KANSAI INTL , JP) observed 1600 UTC 17 May 2021
Temperature: 19.0°C (66°F)
Dewpoint: 18.0°C (64°F) [RH = 94%]
Pressure (altimeter): 29.76 inches Hg (1008.0 mb)
Winds: from the SW (230 degrees) at 8 MPH (7 knots; 3.6 m/s)
Visibility: 6 or more miles (10+ km)
Ceiling: 5000 feet AGL
Clouds: few clouds at 4800 feet AGL
broken clouds at 5000 feet AGL
overcast cloud deck at 7000 feet AGL
Weather: no significant weather observed at this time

METAR text: RJBB 171530Z AUTO 23005KT 9999 OVC050 21/19 Q1007 NOSIG
Conditions at: RJBB (KANSAI INTL , JP) observed 1530 UTC 17 May 2021
Temperature: 21.0°C (70°F)
Dewpoint: 19.0°C (66°F) [RH = 88%]
Pressure (altimeter): 29.73 inches Hg (1007.0 mb)
Winds: from the SW (230 degrees) at 6 MPH (5 knots; 2.6 m/s)
Visibility: 6 or more miles (10+ km)
Ceiling: 5000 feet AGL
Clouds: overcast cloud deck at 5000 feet AGL
Weather: no significant weather observed at this time

Forecast for: RJBB (KANSAI INTL , JP)
Text: TAF RJBB 171108Z 1712/1818 21007KT 9999 FEW015 SCT030 BKN050
Forecast period: 1200 UTC 17 May 2021 to 1800 UTC 18 May 2021
Forecast type: FROM: standard forecast or significant change
Winds: from the SSW (210 degrees) at 8 MPH (7 knots; 3.6 m/s)
Visibility: 6 or more miles (10+ km)
Ceiling: 5000 feet AGL
Clouds: few clouds at 1500 feet AGL
scattered clouds at 3000 feet AGL
broken clouds at 5000 feet AGL
Weather: no significant weather forecast for this period